Scf Baltica — A8IA5 — position and weather

sailwx.info

Track history (hours):
 
Tides and Currents Weather Stations Pressure Air Temp Water Temp Dewpoint Dewpoint Depression Visibility Wind Speed Wind Dir Waves Ship Positions

Scf Baltica

Last reported at 2015-Aug-01 04:33 UTC. Time now 2015-Aug-01 05:46 UTC.
Position N 56°27' W 001°58'.

Length 250 m; draft 9 m.

Type: Ship. MMSI: 636012813.

Date/timePositionNaut miles runAvg speedWind from/ knotsBaromVisibWave heightAir tempDewpointWater temp
2015-Aug-01 04:33N 56°27' W 001°58'1 1.2
2015-Aug-01 03:26N 56°26' W 001°59'1 0.7
2015-Aug-01 02:33N 56°25' W 001°59'1 0.7
2015-Aug-01 01:32N 56°25' W 001°58'1 0.6
2015-Aug-01 00:33N 56°24' W 001°57'4 1.2
2015-Jul-31 21:12N 56°22' W 001°52'1 1.3
2015-Jul-31 20:33N 56°21' W 001°52'2 1.6
2015-Jul-31 19:34N 56°19' W 001°52'2 1.9
2015-Jul-31 18:34N 56°18' W 001°52'2 1.5
2015-Jul-31 17:34N 56°16' W 001°53'1 1.3
2015-Jul-31 16:34N 56°15' W 001°53'0 0.5
2015-Jul-31 15:34N 56°14' W 001°52'0 0.4
2015-Jul-31 14:26N 56°15' W 001°52'1 0.7
2015-Jul-31 13:33N 56°15' W 001°51'1 0.7
2015-Jul-31 12:33N 56°16' W 001°51'1 0.6
2015-Jul-31 11:33N 56°16' W 001°51'4 4.1
2015-Jul-31 10:33N 56°15' W 001°57'7 7.3
2015-Jul-31 09:33N 56°08' W 001°59'1110.8
2015-Jul-31 08:33N 55°58' W 001°50'1110.7
2015-Jul-31 07:32N 55°48' W 001°40'2010.2
2015-Jul-31 05:33N 55°34' W 001°15'9 8.9
2015-Jul-31 04:31N 55°28' W 001°03'10 8.3
2015-Jul-31 03:20N 55°21' W 000°50'9 8.0
2015-Jul-31 02:16N 55°15' W 000°39'7 8.1
2015-Jul-31 01:22N 55°11' W 000°30'7 8.6
2015-Jul-31 00:33N 55°06' W 000°21'9 9.1
2015-Jul-30 23:33N 54°60' W 000°09'9 9.3
2015-Jul-30 22:32N 54°53' E 000°02'9 9.5
2015-Jul-30 21:33N 54°47' E 000°15'9 9.2
2015-Jul-30 20:34N 54°41' E 000°27'9 9.0
2015-Jul-30 19:33N 54°35' E 000°39'179 7.4
2015-Jul-29 19:24N 52°09' E 003°32'3 3.0
2015-Jul-29 18:26N 52°09' E 003°36'0 0.0
2015-Jul-29 15:26N 52°09' E 003°36'0 0.0
2015-Jul-29 11:05N 52°09' E 003°36'0 0.0
2015-Jul-29 06:26N 52°09' E 003°36'4 4.8
2015-Jul-29 05:33N 52°06' E 003°42'1110.7
2015-Jul-29 04:34N 52°02' E 003°58'5 5.4
2015-Jul-29 03:33N 51°58' E 004°04'0 0.0
2015-Jul-29 02:30N 51°58' E 004°04'0 0.0
2015-Jul-29 01:30N 51°58' E 004°04'0 0.0
2015-Jul-29 00:27N 51°58' E 004°04'0 0.0
2015-Jul-28 23:33N 51°58' E 004°04'0 0.0
2015-Jul-28 22:33N 51°58' E 004°04'0 0.0
2015-Jul-28 21:30N 51°58' E 004°04'0 0.0
2015-Jul-28 20:21N 51°58' E 004°04'0 0.0
2015-Jul-28 19:33N 51°58' E 004°04'0 0.0
2015-Jul-28 18:33N 51°58' E 004°04'0 0.0
2015-Jul-28 17:33N 51°58' E 004°04'0 0.0
2015-Jul-28 16:33N 51°58' E 004°04'0 0.0
2015-Jul-28 15:33N 51°58' E 004°04'0 0.0
2015-Jul-28 14:27N 51°58' E 004°04'0 0.0
2015-Jul-28 13:33N 51°58' E 004°04'0 0.0
2015-Jul-28 12:33N 51°58' E 004°04'0 0.0
2015-Jul-28 11:33N 51°58' E 004°04'0 0.0
2015-Jul-28 10:33N 51°58' E 004°04'0 0.0
2015-Jul-28 09:33N 51°58' E 004°04'0 0.0
2015-Jul-28 08:33N 51°58' E 004°04'0 0.0
2015-Jul-28 07:30N 51°58' E 004°04'0 0.0
2015-Jul-28 06:33N 51°58' E 004°04'0 0.0
2015-Jul-28 05:33N 51°58' E 004°04'0 0.0
2015-Jul-28 04:33N 51°58' E 004°04'0 0.0
2015-Jul-28 03:33N 51°58' E 004°04'0 0.0
2015-Jul-28 02:33N 51°58' E 004°04'0 0.0
2015-Jul-28 01:33N 51°58' E 004°04'0 0.0
2015-Jul-28 00:33N 51°58' E 004°04'0 0.0
2015-Jul-27 23:27N 51°58' E 004°04'1 0.6
2015-Jul-27 22:34N 51°58' E 004°05'7 6.9
2015-Jul-27 21:33N 52°01' E 003°55'7 6.7
2015-Jul-27 20:33N 52°01' E 003°44'19410.2
2015-Jul-27 01:30N 54°38' E 000°33'1111.7
2015-Jul-27 00:31N 54°46' E 000°18'1211.6
2015-Jul-26 23:27N 54°54' E 000°02'9211.4
2015-Jul-26 15:21N 55°56' W 001°58'910.9
2015-Jul-26 14:33N 56°00' W 002°11'1111.1
2015-Jul-26 13:33N 56°06' W 002°28'1111.5
2015-Jul-26 12:33N 56°06' W 002°49'1110.8
2015-Jul-26 11:33N 56°03' W 003°07'7 6.7
2015-Jul-26 10:33N 56°01' W 003°19'2 1.6
2015-Jul-26 09:27N 56°00' W 003°22'0 0.0
2015-Jul-26 08:30N 56°00' W 003°22'0 0.0
2015-Jul-26 07:30N 56°00' W 003°22'0 0.0
2015-Jul-26 06:33N 56°00' W 003°22'0 0.0
2015-Jul-26 05:33N 56°00' W 003°22'0 0.0
2015-Jul-26 04:33N 56°00' W 003°22'0 0.0
2015-Jul-26 03:33N 56°00' W 003°22'0 0.0
2015-Jul-26 02:33N 56°00' W 003°22'0 0.0
2015-Jul-26 01:33N 56°00' W 003°22'0 0.0
2015-Jul-26 00:33N 56°00' W 003°22'0 0.0
2015-Jul-25 23:24N 56°00' W 003°22'0 0.0
2015-Jul-25 22:21N 56°00' W 003°22'0 0.0
2015-Jul-25 21:27N 56°00' W 003°22'0 0.0
2015-Jul-25 20:24N 56°00' W 003°22'0 0.0
2015-Jul-25 19:27N 56°00' W 003°22'0 0.0
2015-Jul-25 18:30N 56°00' W 003°22'0 0.0
2015-Jul-25 17:27N 56°00' W 003°22'0 0.0
2015-Jul-25 16:30N 56°00' W 003°22'0 0.0
2015-Jul-25 15:33N 56°00' W 003°22'0 0.0
2015-Jul-25 14:33N 56°00' W 003°22'0 0.0
2015-Jul-25 13:30N 56°00' W 003°22'0 0.0
2015-Jul-25 12:33N 56°00' W 003°22'0 0.0
2015-Jul-25 11:33N 56°00' W 003°22'0 0.0
2015-Jul-25 10:24N 56°00' W 003°22'0 0.0
2015-Jul-25 09:24N 56°00' W 003°22'0 0.3
2015-Jul-25 08:33N 56°01' W 003°21'6 6.3
2015-Jul-25 07:33N 56°03' W 003°11'9 9.0
2015-Jul-25 06:33N 56°05' W 002°55'8 7.7
2015-Jul-25 05:33N 56°07' W 002°42'7 6.7
2015-Jul-25 04:33N 56°06' W 002°30'1010.3
2015-Jul-25 03:33N 56°02' W 002°14'1110.6
2015-Jul-25 02:33N 55°56' W 001°58'4010.1
2015-Jul-24 22:33N 55°29' W 001°05'10 9.7
2015-Jul-24 21:29N 55°22' W 000°51'10 9.5
2015-Jul-24 20:25N 55°15' W 000°38'910.3
2015-Jul-24 19:30N 55°08' W 000°26'10 9.5
2015-Jul-24 18:29N 55°02' W 000°13'1010.5
2015-Jul-24 17:31N 54°55' W 000°00'1010.2
2015-Jul-24 16:33N 54°48' E 000°13'1110.6
2015-Jul-24 15:33N 54°41' E 000°26'1210.5
2015-Jul-24 14:25N 54°33' E 000°42'4910.0
2015-Jul-24 09:33N 53°60' E 001°42'33 7.6
2015-Jul-24 05:12N 53°39' E 002°25'710.7
2015-Jul-24 04:33N 53°34' E 002°34'1410.0
2015-Jul-24 03:11N 53°24' E 002°50'7 8.2
2015-Jul-24 02:23N 53°18' E 002°50'8 9.2
2015-Jul-24 01:32N 53°11' E 002°45'10 9.0
2015-Jul-24 00:28N 53°02' E 002°40'8 9.3
2015-Jul-23 23:33N 52°53' E 002°40'21 9.7
2015-Jul-23 21:24N 52°32' E 002°45'4010.1
2015-Jul-23 17:26N 52°07' E 003°36'9 9.8
2015-Jul-23 16:33N 52°04' E 003°49'1110.9
2015-Jul-23 15:33N 51°59' E 004°05'4 3.8
2015-Jul-23 14:33N 51°57' E 004°10'0 0.0
2015-Jul-23 13:33N 51°57' E 004°10'0 0.0
2015-Jul-23 12:30N 51°57' E 004°10'0 0.0
2015-Jul-23 11:33N 51°57' E 004°10'0 0.0
2015-Jul-23 10:33N 51°57' E 004°10'0 0.0
2015-Jul-23 09:27N 51°57' E 004°10'0 0.0
2015-Jul-23 08:33N 51°57' E 004°10'0 0.0
2015-Jul-23 07:33N 51°57' E 004°10'0 0.0
2015-Jul-23 06:33N 51°57' E 004°10'0 0.0
2015-Jul-23 05:24N 51°57' E 004°10'0 0.0
2015-Jul-23 04:30N 51°57' E 004°10'0 0.0
2015-Jul-23 03:21N 51°57' E 004°10'0 0.0
2015-Jul-23 02:33N 51°57' E 004°10'0 0.0
2015-Jul-23 01:30N 51°57' E 004°10'0 0.0
2015-Jul-23 00:33N 51°57' E 004°10'0 0.0
2015-Jul-22 23:30N 51°57' E 004°10'0 0.0
2015-Jul-22 22:33N 51°57' E 004°10'0 0.0
2015-Jul-22 21:33N 51°57' E 004°10'0 0.0
2015-Jul-22 20:30N 51°57' E 004°10'0 0.0
2015-Jul-22 19:30N 51°57' E 004°10'0 0.0
2015-Jul-22 18:33N 51°57' E 004°10'0 0.0
2015-Jul-22 17:33N 51°57' E 004°10'0 0.0
2015-Jul-22 16:33N 51°57' E 004°10'0 0.0
2015-Jul-22 15:30N 51°57' E 004°10'0 0.0
2015-Jul-22 14:30N 51°57' E 004°10'0 0.0
2015-Jul-22 13:27N 51°57' E 004°10'0 0.0
2015-Jul-22 12:33N 51°57' E 004°10'0 0.0
2015-Jul-22 11:34N 51°57' E 004°10'0 0.0
2015-Jul-22 10:30N 51°57' E 004°10'2 1.6
2015-Jul-22 09:33N 51°58' E 004°08'10 9.8
2015-Jul-22 08:33N 52°00' E 003°52'10 8.8
2015-Jul-22 07:28N 52°05' E 003°39'5 5.5
2015-Jul-22 06:33N 52°10' E 003°37'0 0.4
2015-Jul-22 05:34N 52°10' E 003°38'  
Track history (hours):
 
Tides and Currents Weather Stations Pressure Air Temp Water Temp Dewpoint Dewpoint Depression Visibility Wind Speed Wind Dir Waves Ship Positions

Scf Baltica

Last reported at 2015-Aug-01 04:33 UTC. Time now 2015-Aug-01 05:46 UTC.
Position N 56°27' W 001°58'.

Length 250 m; draft 9 m.

Type: Ship. MMSI: 636012813.

Date/timePositionNaut miles runAvg speedWind from/ knotsBaromVisibWave heightAir tempDewpointWater temp
2015-Aug-01 04:33N 56°27' W 001°58'1 1.2
2015-Aug-01 03:26N 56°26' W 001°59'1 0.7
2015-Aug-01 02:33N 56°25' W 001°59'1 0.7
2015-Aug-01 01:32N 56°25' W 001°58'1 0.6
2015-Aug-01 00:33N 56°24' W 001°57'4 1.2
2015-Jul-31 21:12N 56°22' W 001°52'1 1.3
2015-Jul-31 20:33N 56°21' W 001°52'2 1.6
2015-Jul-31 19:34N 56°19' W 001°52'2 1.9
2015-Jul-31 18:34N 56°18' W 001°52'2 1.5
2015-Jul-31 17:34N 56°16' W 001°53'1 1.3
2015-Jul-31 16:34N 56°15' W 001°53'0 0.5
2015-Jul-31 15:34N 56°14' W 001°52'0 0.4
2015-Jul-31 14:26N 56°15' W 001°52'1 0.7
2015-Jul-31 13:33N 56°15' W 001°51'1 0.7
2015-Jul-31 12:33N 56°16' W 001°51'1 0.6
2015-Jul-31 11:33N 56°16' W 001°51'4 4.1
2015-Jul-31 10:33N 56°15' W 001°57'7 7.3
2015-Jul-31 09:33N 56°08' W 001°59'1110.8
2015-Jul-31 08:33N 55°58' W 001°50'1110.7
2015-Jul-31 07:32N 55°48' W 001°40'2010.2
2015-Jul-31 05:33N 55°34' W 001°15'9 8.9
2015-Jul-31 04:31N 55°28' W 001°03'10 8.3
2015-Jul-31 03:20N 55°21' W 000°50'9 8.0
2015-Jul-31 02:16N 55°15' W 000°39'7 8.1
2015-Jul-31 01:22N 55°11' W 000°30'7 8.6
2015-Jul-31 00:33N 55°06' W 000°21'9 9.1
2015-Jul-30 23:33N 54°60' W 000°09'9 9.3
2015-Jul-30 22:32N 54°53' E 000°02'9 9.5
2015-Jul-30 21:33N 54°47' E 000°15'9 9.2
2015-Jul-30 20:34N 54°41' E 000°27'9 9.0
2015-Jul-30 19:33N 54°35' E 000°39'179 7.4
2015-Jul-29 19:24N 52°09' E 003°32'3 3.0
2015-Jul-29 18:26N 52°09' E 003°36'0 0.0
2015-Jul-29 15:26N 52°09' E 003°36'0 0.0
2015-Jul-29 11:05N 52°09' E 003°36'0 0.0
2015-Jul-29 06:26N 52°09' E 003°36'4 4.8
2015-Jul-29 05:33N 52°06' E 003°42'1110.7
2015-Jul-29 04:34N 52°02' E 003°58'5 5.4
2015-Jul-29 03:33N 51°58' E 004°04'0 0.0
2015-Jul-29 02:30N 51°58' E 004°04'0 0.0
2015-Jul-29 01:30N 51°58' E 004°04'0 0.0
2015-Jul-29 00:27N 51°58' E 004°04'0 0.0
2015-Jul-28 23:33N 51°58' E 004°04'0 0.0
2015-Jul-28 22:33N 51°58' E 004°04'0 0.0
2015-Jul-28 21:30N 51°58' E 004°04'0 0.0
2015-Jul-28 20:21N 51°58' E 004°04'0 0.0
2015-Jul-28 19:33N 51°58' E 004°04'0 0.0
2015-Jul-28 18:33N 51°58' E 004°04'0 0.0
2015-Jul-28 17:33N 51°58' E 004°04'0 0.0
2015-Jul-28 16:33N 51°58' E 004°04'0 0.0
2015-Jul-28 15:33N 51°58' E 004°04'0 0.0
2015-Jul-28 14:27N 51°58' E 004°04'0 0.0
2015-Jul-28 13:33N 51°58' E 004°04'0 0.0
2015-Jul-28 12:33N 51°58' E 004°04'0 0.0
2015-Jul-28 11:33N 51°58' E 004°04'0 0.0
2015-Jul-28 10:33N 51°58' E 004°04'0 0.0
2015-Jul-28 09:33N 51°58' E 004°04'0 0.0
2015-Jul-28 08:33N 51°58' E 004°04'0 0.0
2015-Jul-28 07:30N 51°58' E 004°04'0 0.0
2015-Jul-28 06:33N 51°58' E 004°04'0 0.0
2015-Jul-28 05:33N 51°58' E 004°04'0 0.0
2015-Jul-28 04:33N 51°58' E 004°04'0 0.0
2015-Jul-28 03:33N 51°58' E 004°04'0 0.0
2015-Jul-28 02:33N 51°58' E 004°04'0 0.0
2015-Jul-28 01:33N 51°58' E 004°04'0 0.0
2015-Jul-28 00:33N 51°58' E 004°04'0 0.0
2015-Jul-27 23:27N 51°58' E 004°04'1 0.6
2015-Jul-27 22:34N 51°58' E 004°05'7 6.9
2015-Jul-27 21:33N 52°01' E 003°55'7 6.7
2015-Jul-27 20:33N 52°01' E 003°44'19410.2
2015-Jul-27 01:30N 54°38' E 000°33'1111.7
2015-Jul-27 00:31N 54°46' E 000°18'1211.6
2015-Jul-26 23:27N 54°54' E 000°02'9211.4
2015-Jul-26 15:21N 55°56' W 001°58'910.9
2015-Jul-26 14:33N 56°00' W 002°11'1111.1
2015-Jul-26 13:33N 56°06' W 002°28'1111.5
2015-Jul-26 12:33N 56°06' W 002°49'1110.8
2015-Jul-26 11:33N 56°03' W 003°07'7 6.7
2015-Jul-26 10:33N 56°01' W 003°19'2 1.6
2015-Jul-26 09:27N 56°00' W 003°22'0 0.0
2015-Jul-26 08:30N 56°00' W 003°22'0 0.0
2015-Jul-26 07:30N 56°00' W 003°22'0 0.0
2015-Jul-26 06:33N 56°00' W 003°22'0 0.0
2015-Jul-26 05:33N 56°00' W 003°22'0 0.0
2015-Jul-26 04:33N 56°00' W 003°22'0 0.0
2015-Jul-26 03:33N 56°00' W 003°22'0 0.0
2015-Jul-26 02:33N 56°00' W 003°22'0 0.0
2015-Jul-26 01:33N 56°00' W 003°22'0 0.0
2015-Jul-26 00:33N 56°00' W 003°22'0 0.0
2015-Jul-25 23:24N 56°00' W 003°22'0 0.0
2015-Jul-25 22:21N 56°00' W 003°22'0 0.0
2015-Jul-25 21:27N 56°00' W 003°22'0 0.0
2015-Jul-25 20:24N 56°00' W 003°22'0 0.0
2015-Jul-25 19:27N 56°00' W 003°22'0 0.0
2015-Jul-25 18:30N 56°00' W 003°22'0 0.0
2015-Jul-25 17:27N 56°00' W 003°22'0 0.0
2015-Jul-25 16:30N 56°00' W 003°22'0 0.0
2015-Jul-25 15:33N 56°00' W 003°22'0 0.0
2015-Jul-25 14:33N 56°00' W 003°22'0 0.0
2015-Jul-25 13:30N 56°00' W 003°22'0 0.0
2015-Jul-25 12:33N 56°00' W 003°22'0 0.0
2015-Jul-25 11:33N 56°00' W 003°22'0 0.0
2015-Jul-25 10:24N 56°00' W 003°22'0 0.0
2015-Jul-25 09:24N 56°00' W 003°22'0 0.3
2015-Jul-25 08:33N 56°01' W 003°21'6 6.3
2015-Jul-25 07:33N 56°03' W 003°11'9 9.0
2015-Jul-25 06:33N 56°05' W 002°55'8 7.7
2015-Jul-25 05:33N 56°07' W 002°42'7 6.7
2015-Jul-25 04:33N 56°06' W 002°30'1010.3
2015-Jul-25 03:33N 56°02' W 002°14'1110.6
2015-Jul-25 02:33N 55°56' W 001°58'4010.1
2015-Jul-24 22:33N 55°29' W 001°05'10 9.7
2015-Jul-24 21:29N 55°22' W 000°51'10 9.5
2015-Jul-24 20:25N 55°15' W 000°38'910.3
2015-Jul-24 19:30N 55°08' W 000°26'10 9.5
2015-Jul-24 18:29N 55°02' W 000°13'1010.5
2015-Jul-24 17:31N 54°55' W 000°00'1010.2
2015-Jul-24 16:33N 54°48' E 000°13'1110.6
2015-Jul-24 15:33N 54°41' E 000°26'1210.5
2015-Jul-24 14:25N 54°33' E 000°42'4910.0
2015-Jul-24 09:33N 53°60' E 001°42'33 7.6
2015-Jul-24 05:12N 53°39' E 002°25'710.7
2015-Jul-24 04:33N 53°34' E 002°34'1410.0
2015-Jul-24 03:11N 53°24' E 002°50'7 8.2
2015-Jul-24 02:23N 53°18' E 002°50'8 9.2
2015-Jul-24 01:32N 53°11' E 002°45'10 9.0
2015-Jul-24 00:28N 53°02' E 002°40'8 9.3
2015-Jul-23 23:33N 52°53' E 002°40'21 9.7
2015-Jul-23 21:24N 52°32' E 002°45'4010.1
2015-Jul-23 17:26N 52°07' E 003°36'9 9.8
2015-Jul-23 16:33N 52°04' E 003°49'1110.9
2015-Jul-23 15:33N 51°59' E 004°05'4 3.8
2015-Jul-23 14:33N 51°57' E 004°10'0 0.0
2015-Jul-23 13:33N 51°57' E 004°10'0 0.0
2015-Jul-23 12:30N 51°57' E 004°10'0 0.0
2015-Jul-23 11:33N 51°57' E 004°10'0 0.0
2015-Jul-23 10:33N 51°57' E 004°10'0 0.0
2015-Jul-23 09:27N 51°57' E 004°10'0 0.0
2015-Jul-23 08:33N 51°57' E 004°10'0 0.0
2015-Jul-23 07:33N 51°57' E 004°10'0 0.0
2015-Jul-23 06:33N 51°57' E 004°10'0 0.0
2015-Jul-23 05:24N 51°57' E 004°10'0 0.0
2015-Jul-23 04:30N 51°57' E 004°10'0 0.0
2015-Jul-23 03:21N 51°57' E 004°10'0 0.0
2015-Jul-23 02:33N 51°57' E 004°10'0 0.0
2015-Jul-23 01:30N 51°57' E 004°10'0 0.0
2015-Jul-23 00:33N 51°57' E 004°10'0 0.0
2015-Jul-22 23:30N 51°57' E 004°10'0 0.0
2015-Jul-22 22:33N 51°57' E 004°10'0 0.0
2015-Jul-22 21:33N 51°57' E 004°10'0 0.0
2015-Jul-22 20:30N 51°57' E 004°10'0 0.0
2015-Jul-22 19:30N 51°57' E 004°10'0 0.0
2015-Jul-22 18:33N 51°57' E 004°10'0 0.0
2015-Jul-22 17:33N 51°57' E 004°10'0 0.0
2015-Jul-22 16:33N 51°57' E 004°10'0 0.0
2015-Jul-22 15:30N 51°57' E 004°10'0 0.0
2015-Jul-22 14:30N 51°57' E 004°10'0 0.0
2015-Jul-22 13:27N 51°57' E 004°10'0 0.0
2015-Jul-22 12:33N 51°57' E 004°10'0 0.0
2015-Jul-22 11:34N 51°57' E 004°10'0 0.0
2015-Jul-22 10:30N 51°57' E 004°10'2 1.6
2015-Jul-22 09:33N 51°58' E 004°08'10 9.8
2015-Jul-22 08:33N 52°00' E 003°52'10 8.8
2015-Jul-22 07:28N 52°05' E 003°39'5 5.5
2015-Jul-22 06:33N 52°10' E 003°37'0 0.4
2015-Jul-22 05:34N 52°10' E 003°38'  

Dump ship's entire track history